createdAt,value
2023-02-12T00:01:15.342Z,38.78
2023-02-12T00:03:41.989Z,43.03
2023-02-12T00:06:09.981Z,43.35
2023-02-12T00:08:38.034Z,37.55
2023-02-12T00:11:13.740Z,38.67
2023-02-12T00:13:40.992Z,37.78
2023-02-12T00:16:09.772Z,42.40
2023-02-12T00:18:36.441Z,36.38
2023-02-12T00:21:03.656Z,39.70
2023-02-12T00:23:30.592Z,40.97
2023-02-12T00:25:57.472Z,38.20
2023-02-12T00:28:24.045Z,36.08
2023-02-12T00:30:50.687Z,40.45
2023-02-12T00:33:17.237Z,34.03
2023-02-12T00:35:44.231Z,40.05
2023-02-12T00:38:12.595Z,38.95
2023-02-12T00:40:39.156Z,38.63
2023-02-12T00:43:06.069Z,34.40
2023-02-12T00:45:32.614Z,35.58
2023-02-12T00:47:59.041Z,36.67
2023-02-12T00:50:25.649Z,33.05
2023-02-12T00:52:52.654Z,30.30
2023-02-12T00:55:19.637Z,33.55
2023-02-12T00:57:46.137Z,38.10
2023-02-12T01:00:13.873Z,34.45
2023-02-12T01:02:40.772Z,32.22
2023-02-12T01:05:07.610Z,38.95
2023-02-12T01:07:34.096Z,34.78
2023-02-12T01:10:00.589Z,32.42
2023-02-12T01:12:27.150Z,29.88
2023-02-12T01:14:53.601Z,28.23
2023-02-12T01:17:21.290Z,32.40
2023-02-12T01:19:47.694Z,33.08
2023-02-12T01:22:14.105Z,31.88
2023-02-12T01:24:40.526Z,28.17
2023-02-12T01:27:06.932Z,28.48
2023-02-12T01:29:33.365Z,29.25
2023-02-12T01:31:59.862Z,33.72
2023-02-12T01:34:26.364Z,32.45
2023-02-12T01:36:52.789Z,32.95
2023-02-12T01:39:19.284Z,28.73
2023-02-12T01:41:45.956Z,35.38
2023-02-12T01:44:25.909Z,31.80
2023-02-12T01:46:59.698Z,29.48
2023-02-12T01:49:52.267Z,29.83
2023-02-12T01:52:27.423Z,30.63
2023-02-12T01:54:57.327Z,31.13
2023-02-12T01:57:24.813Z,32.30
2023-02-12T01:59:58.135Z,30.73
2023-02-12T02:02:30.298Z,31.08
2023-02-12T02:05:00.170Z,31.58
2023-02-12T02:07:26.983Z,30.45
2023-02-12T02:09:53.832Z,33.83
2023-02-12T02:12:39.199Z,33.22
2023-02-12T02:15:06.975Z,31.40
2023-02-12T02:17:51.343Z,31.35
2023-02-12T02:20:42.859Z,31.35
2023-02-12T02:23:32.587Z,32.90
2023-02-12T02:26:14.832Z,28.75
2023-02-12T02:28:56.493Z,30.52
2023-02-12T02:31:43.851Z,34.97
2023-02-12T02:34:36.731Z,32.72
2023-02-12T02:37:14.373Z,33.45
2023-02-12T02:39:52.078Z,29.52
2023-02-12T02:42:33.164Z,32.83
2023-02-12T02:45:13.807Z,32.55
2023-02-12T02:47:48.803Z,34.83
2023-02-12T02:50:25.258Z,32.92
2023-02-12T02:53:17.480Z,31.95
2023-02-12T02:55:50.303Z,33.35
2023-02-12T02:58:27.926Z,39.47
2023-02-12T03:01:20.452Z,30.33
2023-02-12T03:03:54.973Z,32.35
2023-02-12T03:06:45.184Z,31.48
2023-02-12T03:09:33.690Z,31.20
2023-02-12T03:12:06.453Z,28.30
2023-02-12T03:14:42.539Z,34.70
2023-02-12T03:17:14.426Z,32.42
2023-02-12T03:19:46.508Z,39.28
2023-02-12T03:22:18.333Z,32.28
2023-02-12T03:24:53.726Z,29.95
2023-02-12T03:27:31.581Z,31.98
2023-02-12T03:29:58.798Z,30.58
2023-02-12T03:32:36.361Z,34.97
2023-02-12T03:35:16.324Z,30.70
2023-02-12T03:37:58.149Z,30.92
2023-02-12T03:40:37.158Z,33.45
2023-02-12T03:43:25.041Z,31.98
2023-02-12T03:46:24.935Z,31.45
2023-02-12T03:49:03.450Z,31.40
2023-02-12T03:51:42.257Z,30.80
2023-02-12T03:54:12.775Z,33.58
2023-02-12T03:57:08.164Z,30.42
2023-02-12T03:59:37.735Z,34.67
2023-02-12T04:02:04.864Z,33.97
2023-02-12T04:04:32.210Z,32.90
2023-02-12T04:06:58.952Z,32.78
2023-02-12T04:09:27.572Z,35.78
2023-02-12T04:12:26.021Z,28.83
2023-02-12T04:15:02.223Z,35.63
2023-02-12T04:17:53.619Z,35.83
2023-02-12T04:20:36.750Z,33.90
2023-02-12T04:23:24.204Z,34.47
2023-02-12T04:26:09.904Z,31.45
2023-02-12T04:28:42.229Z,35.05
2023-02-12T04:31:20.580Z,33.58
2023-02-12T04:34:07.335Z,36.75
2023-02-12T04:36:38.679Z,33.53
2023-02-12T04:39:11.924Z,36.80
2023-02-12T04:41:39.677Z,33.97
2023-02-12T04:44:16.036Z,32.90
2023-02-12T04:46:42.447Z,33.45
2023-02-12T04:49:12.486Z,33.67
2023-02-12T04:51:38.965Z,32.88
2023-02-12T04:54:05.725Z,34.83
2023-02-12T04:56:32.401Z,33.65
2023-02-12T04:58:59.107Z,34.92
2023-02-12T05:01:25.892Z,38.13
2023-02-12T05:03:52.726Z,40.65
2023-02-12T05:06:19.292Z,39.17
2023-02-12T05:08:45.943Z,41.60
2023-02-12T05:11:12.371Z,40.28
2023-02-12T05:13:39.099Z,35.83
2023-02-12T05:16:07.620Z,40.30
2023-02-12T05:18:35.211Z,40.50
2023-02-12T05:21:04.452Z,43.78
2023-02-12T05:23:33.281Z,42.65
2023-02-12T05:26:01.253Z,41.80
2023-02-12T05:28:28.336Z,42.50
2023-02-12T05:30:55.258Z,45.15
2023-02-12T05:33:21.728Z,49.15
2023-02-12T05:35:48.137Z,46.47
2023-02-12T05:38:14.713Z,43.05
2023-02-12T05:40:43.121Z,47.45
2023-02-12T05:43:09.525Z,41.00
2023-02-12T05:45:36.111Z,44.38
2023-02-12T05:48:03.057Z,43.20
2023-02-12T05:50:29.606Z,47.95
2023-02-12T05:52:56.080Z,46.70
2023-02-12T05:55:22.522Z,44.65
2023-02-12T05:57:50.881Z,45.72
2023-02-12T06:00:17.558Z,50.10
2023-02-12T06:02:44.363Z,51.33
2023-02-12T06:05:10.787Z,51.90
2023-02-12T06:07:37.206Z,48.53
2023-02-12T06:10:03.635Z,51.33
2023-02-12T06:12:30.076Z,48.20
2023-02-12T06:14:56.542Z,52.00
2023-02-12T06:17:22.960Z,47.17
2023-02-12T06:19:49.642Z,48.83
2023-02-12T06:22:16.077Z,48.15
2023-02-12T06:24:42.513Z,49.28
2023-02-12T06:27:09.203Z,51.08
2023-02-12T06:29:35.628Z,48.25
2023-02-12T06:32:02.198Z,53.47
2023-02-12T06:34:28.796Z,50.60
2023-02-12T06:36:55.203Z,49.15
2023-02-12T06:39:21.735Z,50.03
2023-02-12T06:41:48.182Z,43.95
2023-02-12T06:44:14.808Z,47.22
2023-02-12T06:46:41.313Z,51.58
2023-02-12T06:49:07.898Z,46.92
2023-02-12T06:51:36.397Z,46.95
2023-02-12T06:54:02.881Z,47.20
2023-02-12T06:56:29.278Z,49.45
2023-02-12T06:58:58.359Z,47.08
2023-02-12T07:01:27.065Z,47.47
2023-02-12T07:04:03.627Z,47.63
2023-02-12T07:06:31.993Z,47.60
2023-02-12T07:08:58.745Z,49.53
2023-02-12T07:11:27.319Z,47.65
2023-02-12T07:13:53.982Z,50.22
2023-02-12T07:16:21.003Z,52.15
2023-02-12T07:18:48.018Z,50.60
2023-02-12T07:21:16.305Z,52.65
2023-02-12T07:23:49.168Z,52.53
2023-02-12T07:26:17.815Z,50.15
2023-02-12T07:28:44.275Z,53.25
2023-02-12T07:31:16.707Z,59.35
2023-02-12T07:33:43.536Z,51.25
2023-02-12T07:36:13.566Z,52.60
2023-02-12T07:38:40.852Z,52.00
2023-02-12T07:41:13.113Z,52.92
2023-02-12T07:43:41.634Z,48.90
2023-02-12T07:46:23.023Z,52.47
2023-02-12T07:48:51.956Z,53.03
2023-02-12T07:51:21.672Z,53.03
2023-02-12T07:53:49.053Z,54.03
2023-02-12T07:56:22.328Z,55.47
2023-02-12T07:58:51.039Z,56.22
2023-02-12T08:01:28.782Z,54.25
2023-02-12T08:03:59.246Z,60.28
2023-02-12T08:06:28.510Z,53.72
2023-02-12T08:08:57.485Z,47.08
2023-02-12T08:11:25.338Z,49.03
2023-02-12T08:13:52.147Z,59.63
2023-02-12T08:16:22.239Z,56.22
2023-02-12T08:18:49.569Z,53.88
2023-02-12T08:21:22.183Z,50.78
2023-02-12T08:23:51.780Z,55.25
2023-02-12T08:26:22.118Z,60.88
2023-02-12T08:29:22.432Z,51.20
2023-02-12T08:31:50.662Z,53.70
2023-02-12T08:34:23.232Z,53.03
2023-02-12T08:36:53.971Z,54.92
2023-02-12T08:39:21.170Z,56.00
2023-02-12T08:41:48.169Z,49.42
2023-02-12T08:44:15.357Z,51.47
2023-02-12T08:46:50.785Z,51.63
2023-02-12T08:49:20.071Z,50.05
2023-02-12T08:51:49.113Z,42.60
2023-02-12T08:54:18.684Z,42.97
2023-02-12T08:56:45.656Z,42.60
2023-02-12T08:59:14.101Z,44.38
2023-02-12T09:01:41.891Z,47.05
2023-02-12T09:04:15.112Z,47.95
2023-02-12T09:06:41.945Z,54.95
2023-02-12T09:09:08.428Z,54.15
2023-02-12T09:11:35.556Z,44.08
2023-02-12T09:14:03.995Z,48.33
2023-02-12T09:16:33.653Z,41.78
2023-02-12T09:19:00.346Z,41.55
2023-02-12T09:21:27.196Z,43.78
2023-02-12T09:23:53.784Z,39.72
2023-02-12T09:26:23.357Z,36.80
2023-02-12T09:28:50.592Z,38.70
2023-02-12T09:31:37.385Z,37.20
2023-02-12T09:34:06.193Z,38.85
2023-02-12T09:36:33.243Z,32.40
2023-02-12T09:39:00.523Z,33.90
2023-02-12T09:41:50.631Z,34.80
2023-02-12T09:44:26.695Z,32.08
2023-02-12T09:47:16.143Z,33.00
2023-02-12T09:50:33.654Z,33.42
2023-02-12T09:53:00.670Z,34.42
2023-02-12T09:55:32.163Z,35.45
2023-02-12T09:58:02.988Z,34.80
2023-02-12T10:00:31.845Z,33.22
2023-02-12T10:03:05.469Z,33.92
2023-02-12T10:05:38.942Z,31.27
2023-02-12T10:08:32.308Z,33.75
2023-02-12T10:11:05.294Z,34.20
2023-02-12T10:14:02.105Z,31.80
2023-02-12T10:16:46.900Z,32.10
2023-02-12T10:19:27.075Z,27.63
2023-02-12T10:21:56.213Z,33.92
2023-02-12T10:24:47.455Z,30.35
2023-02-12T10:27:20.641Z,32.28
2023-02-12T10:29:48.785Z,29.70
2023-02-12T10:32:25.832Z,32.45
2023-02-12T10:34:53.926Z,33.47
2023-02-12T10:37:28.366Z,32.78
2023-02-12T10:40:02.141Z,34.97
2023-02-12T10:42:43.231Z,32.25
2023-02-12T10:45:15.215Z,28.23
2023-02-12T10:47:41.704Z,25.90
2023-02-12T10:50:42.798Z,27.30
2023-02-12T10:53:20.340Z,24.85
2023-02-12T10:55:46.857Z,25.05
2023-02-12T10:58:23.068Z,20.48
2023-02-12T11:00:58.356Z,22.60
2023-02-12T11:03:37.593Z,19.35
2023-02-12T11:06:16.611Z,17.88
2023-02-12T11:08:43.992Z,18.85
2023-02-12T11:11:21.726Z,15.27
2023-02-12T11:13:59.902Z,18.90
2023-02-12T11:16:36.702Z,21.80
2023-02-12T11:19:19.582Z,24.13
2023-02-12T11:21:46.247Z,19.92
2023-02-12T11:24:23.213Z,19.88
2023-02-12T11:26:49.632Z,15.68
2023-02-12T11:29:25.863Z,14.55
2023-02-12T11:32:04.965Z,15.45
2023-02-12T11:34:31.794Z,17.90
2023-02-12T11:36:58.595Z,19.95
2023-02-12T11:39:32.565Z,18.73
2023-02-12T11:42:15.331Z,16.67
2023-02-12T11:44:47.726Z,18.52
2023-02-12T11:47:23.734Z,15.80
2023-02-12T11:49:53.959Z,16.25
2023-02-12T11:52:24.028Z,21.13
2023-02-12T11:54:53.651Z,21.90
2023-02-12T11:57:43.985Z,15.07
2023-02-12T12:00:52.149Z,18.73
2023-02-12T12:03:35.518Z,20.55
2023-02-12T12:06:24.518Z,18.50
2023-02-12T12:09:09.872Z,21.02
2023-02-12T12:11:54.886Z,24.15
2023-02-12T12:14:27.458Z,22.65
2023-02-12T12:17:25.002Z,23.70
2023-02-12T12:20:11.171Z,18.52
2023-02-12T12:22:56.198Z,19.85
2023-02-12T12:25:28.088Z,16.13
2023-02-12T12:28:18.308Z,17.65
2023-02-12T12:30:44.740Z,20.70
2023-02-12T12:33:20.274Z,18.30
2023-02-12T12:36:14.550Z,18.23
2023-02-12T12:41:18.503Z,17.80
2023-02-12T12:43:57.712Z,16.00
2023-02-12T12:46:56.113Z,17.88
2023-02-12T12:50:05.312Z,18.08
2023-02-12T12:52:42.921Z,17.30
2023-02-12T12:55:37.150Z,19.17
2023-02-12T13:01:04.345Z,18.23
2023-02-12T13:03:49.207Z,16.75
2023-02-12T13:06:37.970Z,17.30
2023-02-12T13:09:38.937Z,17.23
2023-02-12T13:12:11.214Z,13.68
2023-02-12T13:14:53.687Z,16.42
2023-02-12T13:17:29.386Z,18.23
2023-02-12T13:20:24.470Z,14.70
2023-02-12T13:23:22.056Z,14.73
2023-02-12T13:26:04.838Z,18.85
2023-02-12T13:28:38.389Z,22.52
2023-02-12T13:31:30.089Z,17.73
2023-02-12T13:34:01.513Z,14.15
2023-02-12T13:36:27.961Z,13.60
2023-02-12T13:39:12.610Z,12.60
2023-02-12T13:41:45.528Z,13.13
2023-02-12T13:44:28.879Z,20.50
2023-02-12T13:47:22.712Z,16.08
2023-02-12T13:50:05.372Z,17.65
2023-02-12T13:52:53.001Z,19.17
2023-02-12T13:55:29.760Z,15.48
2023-02-12T13:58:40.059Z,15.48
2023-02-12T14:01:10.550Z,12.65
2023-02-12T14:03:38.856Z,14.57
2023-02-12T14:06:22.629Z,12.43
2023-02-12T14:09:09.940Z,9.80
2023-02-12T14:11:48.451Z,14.93
2023-02-12T14:14:27.591Z,10.43
2023-02-12T14:16:54.133Z,12.27
2023-02-12T14:19:52.913Z,9.43
2023-02-12T14:22:28.093Z,11.07
2023-02-12T14:24:59.040Z,9.07
2023-02-12T14:27:46.130Z,11.82
2023-02-12T14:30:12.715Z,11.48
2023-02-12T14:32:58.096Z,14.13
2023-02-12T14:35:36.751Z,15.05
2023-02-12T14:38:11.423Z,14.25
2023-02-12T14:40:47.286Z,13.52
2023-02-12T14:43:58.957Z,13.45
2023-02-12T14:46:25.470Z,18.02
2023-02-12T14:48:51.970Z,15.07
2023-02-12T14:51:45.409Z,15.82
2023-02-12T14:54:30.236Z,14.50
2023-02-12T14:57:01.627Z,15.82
2023-02-12T14:59:33.747Z,15.02
2023-02-12T15:02:02.385Z,15.75
2023-02-12T15:04:33.012Z,15.88
2023-02-12T15:07:08.267Z,20.75
2023-02-12T15:10:10.065Z,17.13
2023-02-12T15:12:45.682Z,14.82
2023-02-12T15:15:35.368Z,22.42
2023-02-12T15:18:18.709Z,17.45
2023-02-12T15:20:51.071Z,15.45
2023-02-12T15:23:36.322Z,16.55
2023-02-12T15:26:05.022Z,18.75
2023-02-12T15:28:38.288Z,16.08
2023-02-12T15:31:10.754Z,17.40
2023-02-12T15:33:44.908Z,17.48
2023-02-12T15:36:18.382Z,18.73
2023-02-12T15:38:51.078Z,16.50
2023-02-12T15:41:33.488Z,22.02
2023-02-12T15:44:02.339Z,19.02
2023-02-12T15:46:28.781Z,29.92
2023-02-12T15:48:58.376Z,19.77
2023-02-12T15:51:34.851Z,17.30
2023-02-12T15:54:04.981Z,17.60
2023-02-12T15:56:33.869Z,20.42
2023-02-12T15:59:02.497Z,18.50
2023-02-12T16:01:32.798Z,16.75
2023-02-12T16:04:02.303Z,18.55
2023-02-12T16:06:32.298Z,17.85
2023-02-12T16:09:03.789Z,15.57
2023-02-12T16:11:31.640Z,18.45
2023-02-12T16:14:08.810Z,14.10
2023-02-12T16:16:45.552Z,15.00
2023-02-12T16:19:25.598Z,12.15
2023-02-12T16:21:55.045Z,12.63
2023-02-12T16:24:27.119Z,12.23
2023-02-12T16:26:54.280Z,11.95
2023-02-12T16:29:21.390Z,14.40
2023-02-12T16:32:01.918Z,15.90
2023-02-12T16:34:37.736Z,14.65
2023-02-12T16:37:39.004Z,16.20
2023-02-12T16:40:15.571Z,14.98
2023-02-12T16:42:47.727Z,17.80
2023-02-12T16:45:32.437Z,13.18
2023-02-12T16:48:10.375Z,13.85
2023-02-12T16:50:44.842Z,28.80
2023-02-12T16:53:29.967Z,27.52
2023-02-12T16:55:58.284Z,21.95
2023-02-12T16:58:26.348Z,15.95
2023-02-12T17:00:54.932Z,11.15
2023-02-12T17:03:21.469Z,12.35
2023-02-12T17:05:49.372Z,13.20
2023-02-12T17:08:19.592Z,11.52
2023-02-12T17:10:46.067Z,13.55
2023-02-12T17:13:12.451Z,13.40
2023-02-12T17:15:56.696Z,12.50
2023-02-12T17:18:24.908Z,13.30
2023-02-12T17:21:03.510Z,13.70
2023-02-12T17:23:30.789Z,13.23
2023-02-12T17:25:57.872Z,13.13
2023-02-12T17:30:52.323Z,13.38
2023-02-12T17:33:19.973Z,17.38
2023-02-12T17:35:46.544Z,16.92
2023-02-12T17:38:13.095Z,13.90
2023-02-12T17:40:39.522Z,12.50
2023-02-12T17:43:06.288Z,13.90
2023-02-12T17:45:32.799Z,14.30
2023-02-12T17:47:59.408Z,11.82
2023-02-12T17:50:25.904Z,12.57
2023-02-12T17:52:52.439Z,14.20
2023-02-12T17:55:18.984Z,12.63
2023-02-12T17:57:45.433Z,10.48
2023-02-12T18:00:14.715Z,12.07
2023-02-12T18:02:41.193Z,12.95
2023-02-12T18:07:50.854Z,15.70
2023-02-12T18:10:17.353Z,18.55
2023-02-12T18:12:43.818Z,16.08
2023-02-12T18:15:10.848Z,17.90
2023-02-12T18:17:40.980Z,16.85
2023-02-12T18:20:08.537Z,16.55
2023-02-12T18:22:35.627Z,20.83
2023-02-12T18:25:02.140Z,15.32
2023-02-12T18:27:28.626Z,14.82
2023-02-12T18:29:56.957Z,18.35
2023-02-12T18:32:24.453Z,15.35
2023-02-12T18:34:51.140Z,23.30
2023-02-12T18:37:17.563Z,19.95
2023-02-12T18:44:51.942Z,19.23
2023-02-12T18:47:19.731Z,16.45
2023-02-12T18:49:46.360Z,17.80
2023-02-12T18:52:12.969Z,22.75
2023-02-12T18:54:39.534Z,15.88
2023-02-12T18:57:06.165Z,18.65
2023-02-12T18:59:32.674Z,17.67
2023-02-12T19:01:59.320Z,14.95
2023-02-12T19:04:27.823Z,16.65
2023-02-12T19:06:54.985Z,16.75
2023-02-12T19:09:24.847Z,14.48
2023-02-12T19:11:54.708Z,13.93
2023-02-12T19:14:23.158Z,15.38
2023-02-12T19:16:50.353Z,11.65
2023-02-12T19:19:18.376Z,19.45
2023-02-12T19:21:44.838Z,19.88
2023-02-12T19:24:14.926Z,19.98
2023-02-12T19:26:41.562Z,20.38
2023-02-12T19:29:08.072Z,22.15
2023-02-12T19:31:37.671Z,23.17
2023-02-12T19:34:07.372Z,22.92
2023-02-12T19:36:35.982Z,21.50
2023-02-12T19:39:04.988Z,14.27
2023-02-12T19:41:32.993Z,14.40
2023-02-12T19:44:01.512Z,12.95
2023-02-12T19:46:30.828Z,12.50
2023-02-12T19:48:59.692Z,14.60
2023-02-12T19:51:26.800Z,12.85
2023-02-12T19:53:53.809Z,16.20
2023-02-12T19:56:20.318Z,11.85
2023-02-12T19:58:46.771Z,15.48
2023-02-12T20:01:17.700Z,14.77
2023-02-12T20:03:45.322Z,14.10
2023-02-12T20:06:16.235Z,17.88
2023-02-12T20:08:44.363Z,16.23
2023-02-12T20:11:16.542Z,14.43
2023-02-12T20:13:44.052Z,19.27
2023-02-12T20:16:16.792Z,16.95
2023-02-12T20:18:45.329Z,16.97
2023-02-12T20:21:15.118Z,21.10
2023-02-12T20:23:42.165Z,20.55
2023-02-12T20:26:10.684Z,15.75
2023-02-12T20:28:38.358Z,20.38
2023-02-12T20:31:19.239Z,17.73
2023-02-12T20:33:47.067Z,20.20
2023-02-12T20:36:14.923Z,25.05
2023-02-12T20:38:44.830Z,14.30
2023-02-12T20:41:12.582Z,14.15
2023-02-12T20:43:39.775Z,15.38
2023-02-12T20:46:18.316Z,11.80
2023-02-12T20:48:45.982Z,9.70
2023-02-12T20:51:16.028Z,10.00
2023-02-12T20:53:43.815Z,9.90
2023-02-12T20:56:13.919Z,11.23
2023-02-12T20:58:45.103Z,11.20
2023-02-12T21:01:21.589Z,10.85
2023-02-12T21:03:50.023Z,9.18
2023-02-12T21:06:17.536Z,10.32
2023-02-12T21:08:44.457Z,9.88
2023-02-12T21:11:17.281Z,12.65
2023-02-12T21:13:58.616Z,9.60
2023-02-12T21:16:38.163Z,10.70
2023-02-12T21:19:04.937Z,12.43
2023-02-12T21:21:34.222Z,11.23
2023-02-12T21:24:02.552Z,20.05
2023-02-12T21:26:32.037Z,9.85
2023-02-12T21:29:00.398Z,8.90
2023-02-12T21:31:36.475Z,7.38
2023-02-12T21:34:05.199Z,9.02
2023-02-12T21:36:34.832Z,8.18
2023-02-12T21:39:01.612Z,7.15
2023-02-12T21:41:31.177Z,10.50
2023-02-12T21:44:00.302Z,7.78
2023-02-12T21:46:27.710Z,7.78
2023-02-12T21:48:54.717Z,5.57
2023-02-12T21:51:23.617Z,6.07
2023-02-12T21:53:55.112Z,5.78
2023-02-12T21:56:22.501Z,6.68
2023-02-12T21:58:49.715Z,6.15
2023-02-12T22:01:22.817Z,4.78
2023-02-12T22:03:50.397Z,4.53
2023-02-12T22:06:19.177Z,5.35
2023-02-12T22:08:46.796Z,3.05
2023-02-12T22:11:13.935Z,3.33
2023-02-12T22:13:41.455Z,3.03
2023-02-12T22:16:13.882Z,5.38
2023-02-12T22:18:41.519Z,3.38
2023-02-12T22:21:13.097Z,2.63
2023-02-12T22:23:40.376Z,3.97
2023-02-12T22:26:12.749Z,2.80
2023-02-12T22:28:41.783Z,3.35
2023-02-12T22:31:09.876Z,4.47
2023-02-12T22:33:36.446Z,5.78
2023-02-12T22:36:08.614Z,3.38
2023-02-12T22:38:36.475Z,6.93
2023-02-12T22:41:04.553Z,4.05
2023-02-12T22:43:32.937Z,3.72
2023-02-12T22:46:00.066Z,3.35
2023-02-12T22:48:30.946Z,3.78
2023-02-12T22:50:58.497Z,3.53
2023-02-12T22:53:25.962Z,3.28
2023-02-12T22:55:53.098Z,2.33
2023-02-12T22:58:19.767Z,3.00
2023-02-12T23:00:46.249Z,2.92
2023-02-12T23:03:12.741Z,2.85
2023-02-12T23:05:39.548Z,3.80
2023-02-12T23:08:06.701Z,5.30
2023-02-12T23:10:33.654Z,5.00
2023-02-12T23:13:02.391Z,4.20
2023-02-12T23:15:29.208Z,3.65
2023-02-12T23:17:55.754Z,2.97
2023-02-12T23:20:22.196Z,4.43
2023-02-12T23:22:48.610Z,3.38
2023-02-12T23:25:15.066Z,5.25
2023-02-12T23:27:41.542Z,7.20
2023-02-12T23:30:09.111Z,4.68
2023-02-12T23:32:35.591Z,3.35
2023-02-12T23:35:02.042Z,2.95
2023-02-12T23:37:28.494Z,4.50
2023-02-12T23:39:54.913Z,4.68
2023-02-12T23:42:21.351Z,6.10
2023-02-12T23:44:47.911Z,4.30
2023-02-12T23:47:14.303Z,2.60
2023-02-12T23:49:40.797Z,3.65
2023-02-12T23:52:07.422Z,3.90
2023-02-12T23:54:33.977Z,2.40
2023-02-12T23:57:00.485Z,3.08
2023-02-12T23:59:27.702Z,2.60
